CYTZ/YTZ METAR and TAF weather

Enter ICAO airport designator
Station Type Date Time Source
CYTZ METAR 2021/03/09 10:00 UTC NOAA

CYTZ 091000Z AUTO 25008KT 9SM CLR 01/00 A3029 RMK SLP262


Station Type Date Time Source
CYTZ Decoded METAR 2021/03/09 10:00 UTC NOAA

Toronto Island Airport Automated Reporting Station, Canada (CYTZ) 43-38N 079-24W
Mar 09, 2021 - 05:00 AM EST / 2021.03.09 1000 UTC
Wind: from the WSW (250 degrees) at 9 MPH (8 KT):0
Visibility: 9 mile(s):0
Sky conditions: clear
Temperature: 33 F (1 C)
Windchill: 24 F (-4 C):1
Dew Point: 32 F (0 C)
Relative Humidity: 93%
Pressure (altimeter): 30.29 in. Hg (1025 hPa)
ob: CYTZ 091000Z AUTO 25008KT 9SM CLR 01/00 A3029 RMK SLP262
cycle: 10

Station Type Date Time Source
CYTZ TAF 2021/03/09 08:42 UTC NOAA

TAF CYTZ 090739Z 0908/1008 VRB03KT P6SM FEW240
FM091100 29005KT P6SM SCT012
TEMPO 0911/0914 BKN012
FM091600 VRB03KT P6SM FEW025
BECMG 0922/0924 07008KT
RMK FCST BASED ON AUTO OBS. NXT FCST BY 091400Z

Example: see airport list